sensor_id;sensor_type;location;lat;lon;timestamp;temperature;humidity
33011;DHT22;19370;48.562;9.196;2022-12-18T00:01:58;-7.70;99.90
33011;DHT22;19370;48.562;9.196;2022-12-18T00:04:26;-7.80;99.90
33011;DHT22;19370;48.562;9.196;2022-12-18T00:06:52;-7.80;99.90
33011;DHT22;19370;48.562;9.196;2022-12-18T00:09:20;-7.90;99.90
33011;DHT22;19370;48.562;9.196;2022-12-18T00:11:46;-7.90;99.90
33011;DHT22;19370;48.562;9.196;2022-12-18T00:14:13;-8.00;99.90
33011;DHT22;19370;48.562;9.196;2022-12-18T00:16:39;-7.90;99.90
33011;DHT22;19370;48.562;9.196;2022-12-18T00:19:05;-8.10;99.90
33011;DHT22;19370;48.562;9.196;2022-12-18T00:21:32;-8.00;99.90
33011;DHT22;19370;48.562;9.196;2022-12-18T00:23:59;-8.00;99.90
33011;DHT22;19370;48.562;9.196;2022-12-18T00:26:33;-8.10;99.90
33011;DHT22;19370;48.562;9.196;2022-12-18T00:29:04;-8.10;99.90
33011;DHT22;19370;48.562;9.196;2022-12-18T00:31:31;-8.20;99.90
33011;DHT22;19370;48.562;9.196;2022-12-18T00:33:57;-8.30;99.90
33011;DHT22;19370;48.562;9.196;2022-12-18T00:36:25;-8.30;99.90
33011;DHT22;19370;48.562;9.196;2022-12-18T00:38:53;-8.40;99.90
33011;DHT22;19370;48.562;9.196;2022-12-18T00:41:19;-8.40;99.90
33011;DHT22;19370;48.562;9.196;2022-12-18T00:44:05;-8.30;99.90
33011;DHT22;19370;48.562;9.196;2022-12-18T00:49:03;-8.20;99.90
33011;DHT22;19370;48.562;9.196;2022-12-18T00:51:29;-8.20;99.90
33011;DHT22;19370;48.562;9.196;2022-12-18T00:53:54;-8.20;99.90
33011;DHT22;19370;48.562;9.196;2022-12-18T00:56:20;-8.20;99.90
33011;DHT22;19370;48.562;9.196;2022-12-18T00:58:46;-8.30;99.90
33011;DHT22;19370;48.562;9.196;2022-12-18T01:01:12;-8.40;99.90
33011;DHT22;19370;48.562;9.196;2022-12-18T01:03:37;-8.30;99.90
33011;DHT22;19370;48.562;9.196;2022-12-18T01:06:07;-8.40;99.90
33011;DHT22;19370;48.562;9.196;2022-12-18T01:08:33;-8.40;99.90
33011;DHT22;19370;48.562;9.196;2022-12-18T01:11:00;-8.50;99.90
33011;DHT22;19370;48.562;9.196;2022-12-18T01:13:27;-8.20;99.90
33011;DHT22;19370;48.562;9.196;2022-12-18T01:15:53;-8.10;99.90
33011;DHT22;19370;48.562;9.196;2022-12-18T01:18:19;-7.90;99.90
33011;DHT22;19370;48.562;9.196;2022-12-18T01:20:44;-8.00;99.90
33011;DHT22;19370;48.562;9.196;2022-12-18T01:23:10;-8.00;99.90
33011;DHT22;19370;48.562;9.196;2022-12-18T01:25:36;-8.10;99.90
33011;DHT22;19370;48.562;9.196;2022-12-18T01:28:02;-8.20;99.90
33011;DHT22;19370;48.562;9.196;2022-12-18T01:30:28;-8.20;99.90
33011;DHT22;19370;48.562;9.196;2022-12-18T01:32:54;-8.20;99.90
33011;DHT22;19370;48.562;9.196;2022-12-18T01:35:20;-8.40;99.90
33011;DHT22;19370;48.562;9.196;2022-12-18T01:37:46;-8.20;99.90
33011;DHT22;19370;48.562;9.196;2022-12-18T01:40:12;-8.30;99.90
33011;DHT22;19370;48.562;9.196;2022-12-18T01:42:38;-8.30;99.90
33011;DHT22;19370;48.562;9.196;2022-12-18T01:45:26;-8.40;99.90
33011;DHT22;19370;48.562;9.196;2022-12-18T01:48:04;-8.50;99.90
33011;DHT22;19370;48.562;9.196;2022-12-18T01:50:35;-8.50;99.90
33011;DHT22;19370;48.562;9.196;2022-12-18T01:53:14;-8.60;99.90
33011;DHT22;19370;48.562;9.196;2022-12-18T01:55:46;-8.60;99.90
33011;DHT22;19370;48.562;9.196;2022-12-18T01:58:13;-8.50;99.90
33011;DHT22;19370;48.562;9.196;2022-12-18T02:00:39;-8.40;99.90
33011;DHT22;19370;48.562;9.196;2022-12-18T02:03:05;-8.40;99.90
33011;DHT22;19370;48.562;9.196;2022-12-18T02:05:56;-8.50;99.90
33011;DHT22;19370;48.562;9.196;2022-12-18T02:14:19;-8.60;99.90
33011;DHT22;19370;48.562;9.196;2022-12-18T02:25:28;-8.60;99.90
33011;DHT22;19370;48.562;9.196;2022-12-18T02:28:01;-8.70;99.90
33011;DHT22;19370;48.562;9.196;2022-12-18T02:30:31;-8.80;99.90
33011;DHT22;19370;48.562;9.196;2022-12-18T02:33:01;-8.70;99.90
33011;DHT22;19370;48.562;9.196;2022-12-18T02:35:30;-8.60;99.90
33011;DHT22;19370;48.562;9.196;2022-12-18T02:37:57;-8.60;99.90
33011;DHT22;19370;48.562;9.196;2022-12-18T02:40:26;-8.60;99.90
33011;DHT22;19370;48.562;9.196;2022-12-18T02:42:52;-8.60;99.90
33011;DHT22;19370;48.562;9.196;2022-12-18T02:45:18;-8.60;99.90
33011;DHT22;19370;48.562;9.196;2022-12-18T02:47:48;-8.60;99.90
33011;DHT22;19370;48.562;9.196;2022-12-18T02:50:29;-8.70;99.90
33011;DHT22;19370;48.562;9.196;2022-12-18T02:56:06;-8.90;99.90
33011;DHT22;19370;48.562;9.196;2022-12-18T03:03:42;-8.80;99.90
33011;DHT22;19370;48.562;9.196;2022-12-18T03:06:35;-8.80;99.90
33011;DHT22;19370;48.562;9.196;2022-12-18T03:09:07;-8.80;99.90
33011;DHT22;19370;48.562;9.196;2022-12-18T03:11:36;-8.90;99.90
33011;DHT22;19370;48.562;9.196;2022-12-18T03:14:23;-8.80;99.90
33011;DHT22;19370;48.562;9.196;2022-12-18T03:16:53;-8.70;99.90
33011;DHT22;19370;48.562;9.196;2022-12-18T03:19:22;-8.80;99.90
33011;DHT22;19370;48.562;9.196;2022-12-18T03:21:52;-8.70;99.90
33011;DHT22;19370;48.562;9.196;2022-12-18T03:24:20;-8.70;99.90
33011;DHT22;19370;48.562;9.196;2022-12-18T03:26:47;-8.50;99.90
33011;DHT22;19370;48.562;9.196;2022-12-18T03:29:34;-8.50;99.90
33011;DHT22;19370;48.562;9.196;2022-12-18T03:32:10;-8.50;99.90
33011;DHT22;19370;48.562;9.196;2022-12-18T03:34:39;-8.50;99.90
33011;DHT22;19370;48.562;9.196;2022-12-18T03:37:06;-8.60;99.90
33011;DHT22;19370;48.562;9.196;2022-12-18T03:39:33;-8.60;99.90
33011;DHT22;19370;48.562;9.196;2022-12-18T03:42:01;-8.60;99.90
33011;DHT22;19370;48.562;9.196;2022-12-18T03:44:39;-8.70;99.90
33011;DHT22;19370;48.562;9.196;2022-12-18T03:47:16;-8.70;99.90
33011;DHT22;19370;48.562;9.196;2022-12-18T03:54:47;-8.90;99.90
33011;DHT22;19370;48.562;9.196;2022-12-18T03:57:16;-8.80;99.90
33011;DHT22;19370;48.562;9.196;2022-12-18T03:59:44;-8.80;99.90
33011;DHT22;19370;48.562;9.196;2022-12-18T04:02:11;-8.90;99.90
33011;DHT22;19370;48.562;9.196;2022-12-18T04:04:38;-8.90;99.90
33011;DHT22;19370;48.562;9.196;2022-12-18T04:07:05;-9.00;99.90
33011;DHT22;19370;48.562;9.196;2022-12-18T04:09:33;-8.90;99.90
33011;DHT22;19370;48.562;9.196;2022-12-18T04:11:59;-9.00;99.90
33011;DHT22;19370;48.562;9.196;2022-12-18T04:14:25;-8.90;99.90
33011;DHT22;19370;48.562;9.196;2022-12-18T04:16:51;-8.90;99.90
33011;DHT22;19370;48.562;9.196;2022-12-18T04:19:16;-9.00;99.90
33011;DHT22;19370;48.562;9.196;2022-12-18T04:21:42;-9.00;99.90
33011;DHT22;19370;48.562;9.196;2022-12-18T04:24:08;-9.00;99.90
33011;DHT22;19370;48.562;9.196;2022-12-18T04:26:34;-9.00;99.90
33011;DHT22;19370;48.562;9.196;2022-12-18T04:29:00;-9.00;99.90
33011;DHT22;19370;48.562;9.196;2022-12-18T04:31:27;-9.00;99.90
33011;DHT22;19370;48.562;9.196;2022-12-18T04:33:52;-9.10;99.90
33011;DHT22;19370;48.562;9.196;2022-12-18T04:36:18;-9.10;99.90
33011;DHT22;19370;48.562;9.196;2022-12-18T04:38:44;-9.00;99.90
33011;DHT22;19370;48.562;9.196;2022-12-18T04:41:10;-9.00;99.90
33011;DHT22;19370;48.562;9.196;2022-12-18T04:43:35;-8.90;99.90
33011;DHT22;19370;48.562;9.196;2022-12-18T04:46:06;-9.00;99.90
33011;DHT22;19370;48.562;9.196;2022-12-18T04:48:33;-9.00;99.90
33011;DHT22;19370;48.562;9.196;2022-12-18T04:50:58;-9.00;99.90
33011;DHT22;19370;48.562;9.196;2022-12-18T04:53:24;-9.10;99.90
33011;DHT22;19370;48.562;9.196;2022-12-18T04:55:50;-9.00;99.90
33011;DHT22;19370;48.562;9.196;2022-12-18T04:58:16;-9.00;99.90
33011;DHT22;19370;48.562;9.196;2022-12-18T05:00:41;-9.00;99.90
33011;DHT22;19370;48.562;9.196;2022-12-18T05:03:07;-8.90;99.90
33011;DHT22;19370;48.562;9.196;2022-12-18T05:05:34;-8.90;99.90
33011;DHT22;19370;48.562;9.196;2022-12-18T05:08:00;-8.90;99.90
33011;DHT22;19370;48.562;9.196;2022-12-18T05:10:26;-9.00;99.90
33011;DHT22;19370;48.562;9.196;2022-12-18T05:12:52;-9.10;99.90
33011;DHT22;19370;48.562;9.196;2022-12-18T05:15:30;-9.20;99.90
33011;DHT22;19370;48.562;9.196;2022-12-18T05:17:57;-9.10;99.90
33011;DHT22;19370;48.562;9.196;2022-12-18T05:20:24;-9.20;99.90
33011;DHT22;19370;48.562;9.196;2022-12-18T05:22:50;-9.10;99.90
33011;DHT22;19370;48.562;9.196;2022-12-18T05:25:16;-9.20;99.90
33011;DHT22;19370;48.562;9.196;2022-12-18T05:27:42;-9.30;99.90
33011;DHT22;19370;48.562;9.196;2022-12-18T05:30:09;-9.30;99.90
33011;DHT22;19370;48.562;9.196;2022-12-18T05:32:35;-9.20;99.90
33011;DHT22;19370;48.562;9.196;2022-12-18T05:35:01;-9.20;99.90
33011;DHT22;19370;48.562;9.196;2022-12-18T05:37:26;-9.20;99.90
33011;DHT22;19370;48.562;9.196;2022-12-18T05:39:52;-9.20;99.90
33011;DHT22;19370;48.562;9.196;2022-12-18T05:42:18;-9.20;99.90
33011;DHT22;19370;48.562;9.196;2022-12-18T05:44:44;-9.30;99.90
33011;DHT22;19370;48.562;9.196;2022-12-18T05:47:09;-9.20;99.90
33011;DHT22;19370;48.562;9.196;2022-12-18T05:49:35;-9.10;99.90
33011;DHT22;19370;48.562;9.196;2022-12-18T05:52:01;-9.20;99.90
33011;DHT22;19370;48.562;9.196;2022-12-18T05:54:28;-9.20;99.90
33011;DHT22;19370;48.562;9.196;2022-12-18T05:56:53;-9.20;99.90
33011;DHT22;19370;48.562;9.196;2022-12-18T05:59:19;-9.20;99.90
33011;DHT22;19370;48.562;9.196;2022-12-18T06:01:45;-9.30;99.90
33011;DHT22;19370;48.562;9.196;2022-12-18T06:04:11;-9.30;99.90
33011;DHT22;19370;48.562;9.196;2022-12-18T06:06:38;-9.20;99.90
33011;DHT22;19370;48.562;9.196;2022-12-18T06:09:04;-9.30;99.90
33011;DHT22;19370;48.562;9.196;2022-12-18T06:11:37;-9.40;99.90
33011;DHT22;19370;48.562;9.196;2022-12-18T06:14:05;-9.40;99.90
33011;DHT22;19370;48.562;9.196;2022-12-18T06:16:31;-9.40;99.90
33011;DHT22;19370;48.562;9.196;2022-12-18T06:19:02;-9.40;99.90
33011;DHT22;19370;48.562;9.196;2022-12-18T06:21:29;-9.40;99.90
33011;DHT22;19370;48.562;9.196;2022-12-18T06:23:55;-9.40;99.90
33011;DHT22;19370;48.562;9.196;2022-12-18T06:26:20;-9.40;99.90
33011;DHT22;19370;48.562;9.196;2022-12-18T06:28:46;-9.40;99.90
33011;DHT22;19370;48.562;9.196;2022-12-18T06:31:12;-9.40;99.90
33011;DHT22;19370;48.562;9.196;2022-12-18T06:33:39;-9.40;99.90
33011;DHT22;19370;48.562;9.196;2022-12-18T06:36:11;-9.40;99.90
33011;DHT22;19370;48.562;9.196;2022-12-18T06:38:39;-9.40;99.90
33011;DHT22;19370;48.562;9.196;2022-12-18T06:41:12;-9.40;99.90
33011;DHT22;19370;48.562;9.196;2022-12-18T06:43:38;-9.50;99.90
33011;DHT22;19370;48.562;9.196;2022-12-18T06:46:04;-9.50;99.90
33011;DHT22;19370;48.562;9.196;2022-12-18T06:48:30;-9.60;99.90
33011;DHT22;19370;48.562;9.196;2022-12-18T06:50:56;-9.50;99.90
33011;DHT22;19370;48.562;9.196;2022-12-18T06:53:22;-9.40;99.90
33011;DHT22;19370;48.562;9.196;2022-12-18T06:55:48;-9.30;99.90
33011;DHT22;19370;48.562;9.196;2022-12-18T06:58:14;-9.30;99.90
33011;DHT22;19370;48.562;9.196;2022-12-18T07:00:40;-9.30;99.90
33011;DHT22;19370;48.562;9.196;2022-12-18T07:03:05;-9.40;99.90
33011;DHT22;19370;48.562;9.196;2022-12-18T07:05:31;-9.40;99.90
33011;DHT22;19370;48.562;9.196;2022-12-18T07:07:58;-9.50;99.90
33011;DHT22;19370;48.562;9.196;2022-12-18T07:10:24;-9.40;99.90
33011;DHT22;19370;48.562;9.196;2022-12-18T07:12:50;-9.40;99.90
33011;DHT22;19370;48.562;9.196;2022-12-18T07:15:15;-9.30;99.90
33011;DHT22;19370;48.562;9.196;2022-12-18T07:17:41;-9.30;99.90
33011;DHT22;19370;48.562;9.196;2022-12-18T07:20:07;-9.50;99.90
33011;DHT22;19370;48.562;9.196;2022-12-18T07:22:33;-9.50;99.90
33011;DHT22;19370;48.562;9.196;2022-12-18T07:24:59;-9.30;99.90
33011;DHT22;19370;48.562;9.196;2022-12-18T07:27:25;-9.30;99.90
33011;DHT22;19370;48.562;9.196;2022-12-18T07:29:51;-9.20;99.90
33011;DHT22;19370;48.562;9.196;2022-12-18T07:32:16;-9.40;99.90
33011;DHT22;19370;48.562;9.196;2022-12-18T07:34:42;-9.30;99.90
33011;DHT22;19370;48.562;9.196;2022-12-18T07:37:08;-9.30;99.90
33011;DHT22;19370;48.562;9.196;2022-12-18T07:39:33;-9.30;99.90
33011;DHT22;19370;48.562;9.196;2022-12-18T07:41:59;-9.30;99.90
33011;DHT22;19370;48.562;9.196;2022-12-18T07:44:44;-9.30;99.90
33011;DHT22;19370;48.562;9.196;2022-12-18T07:47:10;-9.30;99.90
33011;DHT22;19370;48.562;9.196;2022-12-18T07:49:35;-9.20;99.90
33011;DHT22;19370;48.562;9.196;2022-12-18T07:52:01;-9.20;99.90
33011;DHT22;19370;48.562;9.196;2022-12-18T07:54:28;-8.90;99.90
33011;DHT22;19370;48.562;9.196;2022-12-18T07:56:54;-8.90;99.90
33011;DHT22;19370;48.562;9.196;2022-12-18T07:59:19;-9.00;99.90
33011;DHT22;19370;48.562;9.196;2022-12-18T08:01:45;-8.90;99.90
33011;DHT22;19370;48.562;9.196;2022-12-18T08:04:11;-8.90;99.90
33011;DHT22;19370;48.562;9.196;2022-12-18T08:06:36;-8.80;99.90
33011;DHT22;19370;48.562;9.196;2022-12-18T08:09:02;-8.80;99.90
33011;DHT22;19370;48.562;9.196;2022-12-18T08:11:29;-8.70;99.90
33011;DHT22;19370;48.562;9.196;2022-12-18T08:13:55;-8.70;99.90
33011;DHT22;19370;48.562;9.196;2022-12-18T08:16:22;-8.50;99.90
33011;DHT22;19370;48.562;9.196;2022-12-18T08:18:48;-8.30;99.90
33011;DHT22;19370;48.562;9.196;2022-12-18T08:21:20;-8.10;99.90
33011;DHT22;19370;48.562;9.196;2022-12-18T08:23:49;-8.10;99.90
33011;DHT22;19370;48.562;9.196;2022-12-18T08:26:15;-8.00;99.90
33011;DHT22;19370;48.562;9.196;2022-12-18T08:28:42;-7.90;99.90
33011;DHT22;19370;48.562;9.196;2022-12-18T08:31:09;-7.90;99.90
33011;DHT22;19370;48.562;9.196;2022-12-18T08:33:35;-7.90;99.90
33011;DHT22;19370;48.562;9.196;2022-12-18T08:36:05;-7.80;99.90
33011;DHT22;19370;48.562;9.196;2022-12-18T08:38:32;-7.90;99.90
33011;DHT22;19370;48.562;9.196;2022-12-18T08:41:13;-7.70;99.90
33011;DHT22;19370;48.562;9.196;2022-12-18T08:43:39;-7.60;99.90
33011;DHT22;19370;48.562;9.196;2022-12-18T08:46:25;-7.40;99.90
33011;DHT22;19370;48.562;9.196;2022-12-18T08:48:52;-7.30;99.90
33011;DHT22;19370;48.562;9.196;2022-12-18T08:51:19;-7.10;99.90
33011;DHT22;19370;48.562;9.196;2022-12-18T08:53:45;-7.00;99.90
33011;DHT22;19370;48.562;9.196;2022-12-18T08:56:11;-7.00;99.90
33011;DHT22;19370;48.562;9.196;2022-12-18T08:58:37;-7.10;99.90
33011;DHT22;19370;48.562;9.196;2022-12-18T09:01:05;-7.00;99.90
33011;DHT22;19370;48.562;9.196;2022-12-18T09:03:31;-7.00;99.90
33011;DHT22;19370;48.562;9.196;2022-12-18T09:05:58;-6.90;99.90
33011;DHT22;19370;48.562;9.196;2022-12-18T09:08:25;-6.80;99.90
33011;DHT22;19370;48.562;9.196;2022-12-18T09:10:51;-6.70;99.90
33011;DHT22;19370;48.562;9.196;2022-12-18T09:13:18;-6.60;99.90
33011;DHT22;19370;48.562;9.196;2022-12-18T09:15:49;-6.60;99.90
33011;DHT22;19370;48.562;9.196;2022-12-18T09:18:16;-6.50;99.90
33011;DHT22;19370;48.562;9.196;2022-12-18T09:20:42;-6.40;99.90
33011;DHT22;19370;48.562;9.196;2022-12-18T09:23:09;-6.20;99.90
33011;DHT22;19370;48.562;9.196;2022-12-18T09:25:36;-6.00;99.90
33011;DHT22;19370;48.562;9.196;2022-12-18T09:28:09;-6.00;99.90
33011;DHT22;19370;48.562;9.196;2022-12-18T09:30:41;-6.00;99.90
33011;DHT22;19370;48.562;9.196;2022-12-18T09:33:08;-5.90;99.90
33011;DHT22;19370;48.562;9.196;2022-12-18T09:35:40;-5.70;99.90
33011;DHT22;19370;48.562;9.196;2022-12-18T09:38:08;-5.70;99.90
33011;DHT22;19370;48.562;9.196;2022-12-18T09:40:41;-5.60;99.90
33011;DHT22;19370;48.562;9.196;2022-12-18T09:43:17;-5.40;99.90
33011;DHT22;19370;48.562;9.196;2022-12-18T09:45:51;-5.40;99.90
33011;DHT22;19370;48.562;9.196;2022-12-18T09:48:24;-5.40;99.90
33011;DHT22;19370;48.562;9.196;2022-12-18T09:50:54;-5.20;99.90
33011;DHT22;19370;48.562;9.196;2022-12-18T09:53:25;-5.10;99.90
33011;DHT22;19370;48.562;9.196;2022-12-18T09:55:52;-4.80;99.90
33011;DHT22;19370;48.562;9.196;2022-12-18T09:58:51;-4.60;99.90
33011;DHT22;19370;48.562;9.196;2022-12-18T10:01:22;-4.30;99.90
33011;DHT22;19370;48.562;9.196;2022-12-18T10:03:48;-3.90;99.90
33011;DHT22;19370;48.562;9.196;2022-12-18T10:06:23;-3.80;99.90
33011;DHT22;19370;48.562;9.196;2022-12-18T10:11:32;-3.10;99.90
33011;DHT22;19370;48.562;9.196;2022-12-18T10:14:18;-2.80;99.90
33011;DHT22;19370;48.562;9.196;2022-12-18T10:19:39;-2.10;99.90
33011;DHT22;19370;48.562;9.196;2022-12-18T10:28:16;-1.50;99.90
33011;DHT22;19370;48.562;9.196;2022-12-18T10:30:44;-1.00;99.90
33011;DHT22;19370;48.562;9.196;2022-12-18T10:33:30;-0.50;99.90
33011;DHT22;19370;48.562;9.196;2022-12-18T10:35:57;-0.60;99.90
33011;DHT22;19370;48.562;9.196;2022-12-18T10:38:28;-0.80;99.90
33011;DHT22;19370;48.562;9.196;2022-12-18T10:41:25;-0.20;99.90
33011;DHT22;19370;48.562;9.196;2022-12-18T10:46:45;0.40;99.90
33011;DHT22;19370;48.562;9.196;2022-12-18T10:49:26;-0.20;99.90
33011;DHT22;19370;48.562;9.196;2022-12-18T10:52:07;0.30;99.90
33011;DHT22;19370;48.562;9.196;2022-12-18T10:54:37;0.80;99.90
33011;DHT22;19370;48.562;9.196;2022-12-18T10:57:20;0.90;99.90
33011;DHT22;19370;48.562;9.196;2022-12-18T10:59:56;1.40;99.90
33011;DHT22;19370;48.562;9.196;2022-12-18T11:02:37;1.60;99.90
33011;DHT22;19370;48.562;9.196;2022-12-18T11:07:50;2.00;99.90
33011;DHT22;19370;48.562;9.196;2022-12-18T11:10:20;2.20;99.90
33011;DHT22;19370;48.562;9.196;2022-12-18T11:12:46;2.40;99.90
33011;DHT22;19370;48.562;9.196;2022-12-18T11:15:20;2.10;99.90
33011;DHT22;19370;48.562;9.196;2022-12-18T11:17:48;2.00;99.90
33011;DHT22;19370;48.562;9.196;2022-12-18T11:20:27;1.80;99.90
33011;DHT22;19370;48.562;9.196;2022-12-18T11:23:04;2.00;99.90
33011;DHT22;19370;48.562;9.196;2022-12-18T11:25:30;2.30;99.90
33011;DHT22;19370;48.562;9.196;2022-12-18T11:28:01;2.40;99.90
33011;DHT22;19370;48.562;9.196;2022-12-18T11:30:33;2.50;99.90
33011;DHT22;19370;48.562;9.196;2022-12-18T11:33:21;2.50;99.90
33011;DHT22;19370;48.562;9.196;2022-12-18T11:35:56;3.00;99.90
33011;DHT22;19370;48.562;9.196;2022-12-18T11:38:35;3.00;98.50
33011;DHT22;19370;48.562;9.196;2022-12-18T11:41:28;3.80;97.80
33011;DHT22;19370;48.562;9.196;2022-12-18T11:44:42;4.20;96.60
33011;DHT22;19370;48.562;9.196;2022-12-18T11:47:37;4.20;95.50
33011;DHT22;19370;48.562;9.196;2022-12-18T11:50:26;4.30;96.00
33011;DHT22;19370;48.562;9.196;2022-12-18T11:52:54;4.60;95.40
33011;DHT22;19370;48.562;9.196;2022-12-18T11:55:39;4.70;94.20
33011;DHT22;19370;48.562;9.196;2022-12-18T12:01:07;4.20;95.30
33011;DHT22;19370;48.562;9.196;2022-12-18T12:04:10;4.40;96.10
33011;DHT22;19370;48.562;9.196;2022-12-18T12:17:37;4.10;96.40
33011;DHT22;19370;48.562;9.196;2022-12-18T12:26:14;3.20;97.80
33011;DHT22;19370;48.562;9.196;2022-12-18T12:39:11;1.40;99.90
33011;DHT22;19370;48.562;9.196;2022-12-18T12:41:39;1.20;99.90
33011;DHT22;19370;48.562;9.196;2022-12-18T12:44:30;1.00;99.90
33011;DHT22;19370;48.562;9.196;2022-12-18T12:47:00;0.80;99.90
33011;DHT22;19370;48.562;9.196;2022-12-18T12:49:33;1.00;99.90
33011;DHT22;19370;48.562;9.196;2022-12-18T12:54:32;0.80;99.90
33011;DHT22;19370;48.562;9.196;2022-12-18T12:57:09;0.60;99.90
33011;DHT22;19370;48.562;9.196;2022-12-18T13:05:30;0.10;99.90
33011;DHT22;19370;48.562;9.196;2022-12-18T13:08:04;0.10;99.90
33011;DHT22;19370;48.562;9.196;2022-12-18T13:12:56;0.00;99.90
33011;DHT22;19370;48.562;9.196;2022-12-18T13:20:42;0.20;99.90
33011;DHT22;19370;48.562;9.196;2022-12-18T13:23:31;0.30;99.90
33011;DHT22;19370;48.562;9.196;2022-12-18T13:36:43;-0.10;99.90
33011;DHT22;19370;48.562;9.196;2022-12-18T13:41:44;-0.40;99.90
33011;DHT22;19370;48.562;9.196;2022-12-18T13:44:12;-0.40;99.90
33011;DHT22;19370;48.562;9.196;2022-12-18T13:46:44;-0.30;99.90
33011;DHT22;19370;48.562;9.196;2022-12-18T13:51:44;-0.60;99.90
33011;DHT22;19370;48.562;9.196;2022-12-18T13:54:19;-0.70;99.90
33011;DHT22;19370;48.562;9.196;2022-12-18T13:56:47;-0.80;99.90
33011;DHT22;19370;48.562;9.196;2022-12-18T13:59:22;-0.60;99.90
33011;DHT22;19370;48.562;9.196;2022-12-18T14:04:26;-0.40;99.90
33011;DHT22;19370;48.562;9.196;2022-12-18T14:06:56;-0.40;99.90
33011;DHT22;19370;48.562;9.196;2022-12-18T14:09:31;-0.50;99.90
33011;DHT22;19370;48.562;9.196;2022-12-18T14:11:59;-0.60;99.90
33011;DHT22;19370;48.562;9.196;2022-12-18T14:14:46;-0.60;99.90
33011;DHT22;19370;48.562;9.196;2022-12-18T14:17:13;-1.00;99.90
33011;DHT22;19370;48.562;9.196;2022-12-18T14:19:48;-1.00;99.90
33011;DHT22;19370;48.562;9.196;2022-12-18T14:22:25;-1.20;99.90
33011;DHT22;19370;48.562;9.196;2022-12-18T14:28:13;-1.50;99.90
33011;DHT22;19370;48.562;9.196;2022-12-18T14:30:38;-1.60;99.90
33011;DHT22;19370;48.562;9.196;2022-12-18T14:35:36;-1.70;99.90
33011;DHT22;19370;48.562;9.196;2022-12-18T14:38:32;-1.90;99.90
33011;DHT22;19370;48.562;9.196;2022-12-18T14:43:26;-2.00;99.90
33011;DHT22;19370;48.562;9.196;2022-12-18T14:45:52;-2.20;99.90
33011;DHT22;19370;48.562;9.196;2022-12-18T14:48:37;-2.40;99.90
33011;DHT22;19370;48.562;9.196;2022-12-18T14:51:17;-2.50;99.90
33011;DHT22;19370;48.562;9.196;2022-12-18T14:53:46;-2.60;99.90
33011;DHT22;19370;48.562;9.196;2022-12-18T14:56:26;-2.70;99.90
33011;DHT22;19370;48.562;9.196;2022-12-18T15:01:25;-2.80;99.90
33011;DHT22;19370;48.562;9.196;2022-12-18T15:03:53;-3.00;99.90
33011;DHT22;19370;48.562;9.196;2022-12-18T15:06:38;-3.10;99.90
33011;DHT22;19370;48.562;9.196;2022-12-18T15:09:25;-3.10;99.90
33011;DHT22;19370;48.562;9.196;2022-12-18T15:11:59;-3.30;99.90
33011;DHT22;19370;48.562;9.196;2022-12-18T15:17:06;-3.40;99.90
33011;DHT22;19370;48.562;9.196;2022-12-18T15:19:42;-3.50;99.90
33011;DHT22;19370;48.562;9.196;2022-12-18T15:24:43;-3.60;99.90
33011;DHT22;19370;48.562;9.196;2022-12-18T15:27:25;-3.60;99.90
33011;DHT22;19370;48.562;9.196;2022-12-18T15:32:34;-3.80;99.90
33011;DHT22;19370;48.562;9.196;2022-12-18T15:35:17;-3.80;99.90
33011;DHT22;19370;48.562;9.196;2022-12-18T15:37:44;-3.80;99.90
33011;DHT22;19370;48.562;9.196;2022-12-18T15:40:19;-3.90;99.90
33011;DHT22;19370;48.562;9.196;2022-12-18T15:42:46;-3.90;99.90
33011;DHT22;19370;48.562;9.196;2022-12-18T15:45:31;-4.00;99.90
33011;DHT22;19370;48.562;9.196;2022-12-18T15:47:57;-4.00;99.90
33011;DHT22;19370;48.562;9.196;2022-12-18T15:50:23;-4.00;99.90
33011;DHT22;19370;48.562;9.196;2022-12-18T15:52:55;-4.00;99.90
33011;DHT22;19370;48.562;9.196;2022-12-18T15:55:23;-4.00;99.90
33011;DHT22;19370;48.562;9.196;2022-12-18T15:58:09;-4.10;99.90
33011;DHT22;19370;48.562;9.196;2022-12-18T16:00:38;-4.10;99.90
33011;DHT22;19370;48.562;9.196;2022-12-18T16:03:05;-4.10;99.90
33011;DHT22;19370;48.562;9.196;2022-12-18T16:05:31;-4.10;99.90
33011;DHT22;19370;48.562;9.196;2022-12-18T16:07:57;-4.20;99.90
33011;DHT22;19370;48.562;9.196;2022-12-18T16:10:25;-4.20;99.90
33011;DHT22;19370;48.562;9.196;2022-12-18T16:12:52;-4.30;99.90
33011;DHT22;19370;48.562;9.196;2022-12-18T16:15:17;-4.30;99.90
33011;DHT22;19370;48.562;9.196;2022-12-18T16:17:43;-4.30;99.90
33011;DHT22;19370;48.562;9.196;2022-12-18T16:20:17;-4.30;99.90
33011;DHT22;19370;48.562;9.196;2022-12-18T16:22:44;-4.40;99.90
33011;DHT22;19370;48.562;9.196;2022-12-18T16:25:28;-4.30;99.90
33011;DHT22;19370;48.562;9.196;2022-12-18T16:27:55;-4.30;99.90
33011;DHT22;19370;48.562;9.196;2022-12-18T16:30:31;-4.30;99.90
33011;DHT22;19370;48.562;9.196;2022-12-18T16:32:58;-4.30;99.90
33011;DHT22;19370;48.562;9.196;2022-12-18T16:35:25;-4.30;99.90
33011;DHT22;19370;48.562;9.196;2022-12-18T16:37:50;-4.30;99.90
33011;DHT22;19370;48.562;9.196;2022-12-18T16:40:17;-4.30;99.90
33011;DHT22;19370;48.562;9.196;2022-12-18T16:42:45;-4.20;99.90
33011;DHT22;19370;48.562;9.196;2022-12-18T16:45:14;-4.20;99.90
33011;DHT22;19370;48.562;9.196;2022-12-18T16:47:40;-4.10;99.90
33011;DHT22;19370;48.562;9.196;2022-12-18T16:50:07;-4.10;99.90
33011;DHT22;19370;48.562;9.196;2022-12-18T16:52:36;-4.00;99.90
33011;DHT22;19370;48.562;9.196;2022-12-18T16:55:02;-3.80;99.90
33011;DHT22;19370;48.562;9.196;2022-12-18T16:57:28;-3.70;99.90
33011;DHT22;19370;48.562;9.196;2022-12-18T16:59:54;-3.70;99.90
33011;DHT22;19370;48.562;9.196;2022-12-18T17:02:23;-3.50;99.90
33011;DHT22;19370;48.562;9.196;2022-12-18T17:04:49;-3.50;99.90
33011;DHT22;19370;48.562;9.196;2022-12-18T17:07:18;-3.60;99.90
33011;DHT22;19370;48.562;9.196;2022-12-18T17:09:44;-3.50;99.90
33011;DHT22;19370;48.562;9.196;2022-12-18T17:12:10;-3.50;99.90
33011;DHT22;19370;48.562;9.196;2022-12-18T17:14:36;-3.60;99.90
33011;DHT22;19370;48.562;9.196;2022-12-18T17:17:03;-3.60;99.90
33011;DHT22;19370;48.562;9.196;2022-12-18T17:19:29;-3.50;99.90
33011;DHT22;19370;48.562;9.196;2022-12-18T17:21:55;-3.60;99.90
33011;DHT22;19370;48.562;9.196;2022-12-18T17:24:22;-3.60;99.90
33011;DHT22;19370;48.562;9.196;2022-12-18T17:26:48;-3.60;99.90
33011;DHT22;19370;48.562;9.196;2022-12-18T17:29:16;-3.60;99.90
33011;DHT22;19370;48.562;9.196;2022-12-18T17:31:43;-3.60;99.90
33011;DHT22;19370;48.562;9.196;2022-12-18T17:34:10;-3.50;99.90
33011;DHT22;19370;48.562;9.196;2022-12-18T17:36:40;-3.50;99.90
33011;DHT22;19370;48.562;9.196;2022-12-18T17:39:06;-3.50;99.90
33011;DHT22;19370;48.562;9.196;2022-12-18T17:41:32;-3.50;99.90
33011;DHT22;19370;48.562;9.196;2022-12-18T17:44:04;-3.50;99.90
33011;DHT22;19370;48.562;9.196;2022-12-18T17:46:31;-3.50;99.90
33011;DHT22;19370;48.562;9.196;2022-12-18T17:48:59;-3.60;99.90
33011;DHT22;19370;48.562;9.196;2022-12-18T17:51:26;-3.60;99.90
33011;DHT22;19370;48.562;9.196;2022-12-18T17:53:52;-3.60;99.90
33011;DHT22;19370;48.562;9.196;2022-12-18T17:56:20;-3.50;99.90
33011;DHT22;19370;48.562;9.196;2022-12-18T17:58:46;-3.70;99.90
33011;DHT22;19370;48.562;9.196;2022-12-18T18:01:15;-3.60;99.90